createdAt,value
2023-01-18T00:00:52.421Z,30.48
2023-01-18T00:03:19.054Z,34.42
2023-01-18T00:05:45.615Z,34.88
2023-01-18T00:08:15.890Z,31.83
2023-01-18T00:10:43.341Z,30.17
2023-01-18T00:13:10.389Z,32.28
2023-01-18T00:15:37.584Z,30.83
2023-01-18T00:18:04.238Z,34.58
2023-01-18T00:20:31.316Z,34.88
2023-01-18T00:23:00.211Z,36.45
2023-01-18T00:25:27.918Z,30.52
2023-01-18T00:27:55.625Z,31.75
2023-01-18T00:30:24.826Z,31.40
2023-01-18T00:32:57.906Z,33.45
2023-01-18T00:35:25.168Z,29.25
2023-01-18T00:37:52.899Z,37.17
2023-01-18T00:40:20.873Z,31.92
2023-01-18T00:43:06.061Z,30.50
2023-01-18T00:45:32.797Z,33.28
2023-01-18T00:47:59.412Z,30.85
2023-01-18T00:50:26.138Z,34.25
2023-01-18T00:52:57.127Z,36.35
2023-01-18T00:55:24.289Z,33.08
2023-01-18T00:57:50.962Z,34.85
2023-01-18T01:00:19.058Z,34.20
2023-01-18T01:02:45.955Z,35.08
2023-01-18T01:05:39.813Z,28.45
2023-01-18T01:08:06.996Z,27.25
2023-01-18T01:10:34.829Z,29.73
2023-01-18T01:13:20.309Z,27.00
2023-01-18T01:16:05.535Z,30.83
2023-01-18T01:18:50.658Z,30.00
2023-01-18T01:21:35.771Z,26.77
2023-01-18T01:24:20.967Z,28.13
2023-01-18T01:26:47.640Z,26.65
2023-01-18T01:29:14.408Z,35.78
2023-01-18T01:31:40.968Z,29.70
2023-01-18T01:34:07.585Z,27.83
2023-01-18T01:36:34.191Z,33.72
2023-01-18T01:39:00.852Z,34.33
2023-01-18T01:41:32.850Z,30.98
2023-01-18T01:44:04.495Z,43.03
2023-01-18T01:46:49.456Z,36.53
2023-01-18T01:49:32.313Z,33.25
2023-01-18T01:52:01.543Z,32.10
2023-01-18T01:55:03.320Z,30.25
2023-01-18T01:57:43.012Z,29.50
2023-01-18T02:00:17.142Z,31.80
2023-01-18T02:02:46.422Z,28.17
2023-01-18T02:05:14.010Z,32.45
2023-01-18T02:07:40.725Z,30.20
2023-01-18T02:10:07.770Z,38.35
2023-01-18T02:12:35.497Z,32.65
2023-01-18T02:15:02.584Z,39.20
2023-01-18T02:17:46.517Z,29.23
2023-01-18T02:20:31.828Z,34.33
2023-01-18T02:23:26.905Z,32.90
2023-01-18T02:26:43.692Z,34.65
2023-01-18T02:29:17.828Z,35.37
2023-01-18T02:31:56.798Z,28.15
2023-01-18T02:34:34.306Z,26.80
2023-01-18T02:37:17.219Z,31.83
2023-01-18T02:40:15.068Z,33.88
2023-01-18T02:45:55.087Z,32.95
2023-01-18T02:48:23.626Z,37.85
2023-01-18T02:50:50.982Z,35.10
2023-01-18T02:53:17.529Z,38.33
2023-01-18T02:56:01.155Z,36.17
2023-01-18T02:58:29.948Z,35.28
2023-01-18T03:01:01.774Z,32.00
2023-01-18T03:03:28.558Z,30.58
2023-01-18T03:06:00.101Z,39.63
2023-01-18T03:08:36.868Z,35.20
2023-01-18T03:11:08.137Z,34.72
2023-01-18T03:14:16.448Z,38.05
2023-01-18T03:17:18.427Z,32.00
2023-01-18T03:20:08.445Z,29.77
2023-01-18T03:23:24.269Z,31.95
2023-01-18T03:25:52.359Z,25.25
2023-01-18T03:28:45.950Z,30.20
2023-01-18T03:31:32.661Z,33.00
2023-01-18T03:34:22.589Z,31.25
2023-01-18T03:36:52.593Z,37.58
2023-01-18T03:39:34.593Z,34.70
2023-01-18T03:42:06.399Z,34.45
2023-01-18T03:44:36.133Z,37.78
2023-01-18T03:47:04.689Z,34.15
2023-01-18T03:49:32.736Z,36.67
2023-01-18T03:52:18.029Z,29.13
2023-01-18T03:54:47.534Z,31.58
2023-01-18T03:57:38.266Z,33.28
2023-01-18T04:00:06.080Z,36.05
2023-01-18T04:02:32.752Z,31.75
2023-01-18T04:05:03.624Z,31.67
2023-01-18T04:07:31.778Z,34.22
2023-01-18T04:09:59.604Z,31.23
2023-01-18T04:12:26.785Z,33.30
2023-01-18T04:14:53.433Z,34.08
2023-01-18T04:17:20.105Z,35.90
2023-01-18T04:19:46.768Z,38.75
2023-01-18T04:22:13.987Z,33.35
2023-01-18T04:24:40.561Z,32.85
2023-01-18T04:27:07.165Z,32.28
2023-01-18T04:29:33.728Z,34.25
2023-01-18T04:32:00.313Z,32.65
2023-01-18T04:34:27.015Z,35.97
2023-01-18T04:36:53.664Z,27.02
2023-01-18T04:39:20.350Z,33.28
2023-01-18T04:41:47.078Z,31.83
2023-01-18T04:44:14.070Z,36.70
2023-01-18T04:46:40.700Z,31.08
2023-01-18T04:49:12.082Z,29.30
2023-01-18T04:51:38.851Z,36.50
2023-01-18T04:54:05.573Z,33.03
2023-01-18T04:56:32.159Z,34.10
2023-01-18T04:58:58.891Z,37.25
2023-01-18T05:01:25.588Z,29.52
2023-01-18T05:03:56.380Z,36.03
2023-01-18T05:06:24.138Z,34.75
2023-01-18T05:08:51.335Z,29.85
2023-01-18T05:11:20.420Z,33.47
2023-01-18T05:13:47.106Z,36.65
2023-01-18T05:16:19.990Z,33.08
2023-01-18T05:18:47.074Z,31.92
2023-01-18T05:21:14.517Z,28.75
2023-01-18T05:23:41.526Z,30.63
2023-01-18T05:26:14.717Z,35.78
2023-01-18T05:28:42.025Z,40.45
2023-01-18T05:31:09.185Z,34.63
2023-01-18T05:33:36.008Z,33.80
2023-01-18T05:36:02.676Z,32.40
2023-01-18T05:38:29.249Z,31.08
2023-01-18T05:40:55.986Z,32.08
2023-01-18T05:43:24.577Z,39.20
2023-01-18T05:45:51.369Z,34.10
2023-01-18T05:48:18.193Z,34.20
2023-01-18T05:50:46.202Z,37.00
2023-01-18T05:53:15.397Z,33.67
2023-01-18T05:55:42.014Z,31.25
2023-01-18T05:58:09.086Z,38.13
2023-01-18T06:00:35.754Z,39.20
2023-01-18T06:03:02.438Z,39.47
2023-01-18T06:05:29.653Z,32.60
2023-01-18T06:07:56.235Z,32.78
2023-01-18T06:10:22.787Z,36.97
2023-01-18T06:12:49.385Z,33.72
2023-01-18T06:15:16.058Z,30.17
2023-01-18T06:17:44.977Z,36.58
2023-01-18T06:20:12.775Z,33.30
2023-01-18T06:22:40.754Z,34.17
2023-01-18T06:25:09.041Z,39.70
2023-01-18T06:27:35.944Z,40.90
2023-01-18T06:30:04.847Z,51.42
2023-01-18T06:32:31.416Z,37.88
2023-01-18T06:34:58.023Z,41.35
2023-01-18T06:37:25.703Z,41.03
2023-01-18T06:39:52.305Z,48.15
2023-01-18T06:42:18.850Z,42.72
2023-01-18T06:44:45.427Z,42.03
2023-01-18T06:47:12.021Z,39.55
2023-01-18T06:49:40.158Z,40.20
2023-01-18T06:52:06.767Z,35.22
2023-01-18T06:54:33.365Z,42.00
2023-01-18T06:56:59.940Z,35.22
2023-01-18T06:59:28.513Z,36.90
2023-01-18T07:01:55.288Z,47.85
2023-01-18T07:04:21.935Z,42.63
2023-01-18T07:06:48.536Z,36.88
2023-01-18T07:09:15.085Z,39.15
2023-01-18T07:11:43.389Z,35.03
2023-01-18T07:16:39.873Z,35.58
2023-01-18T07:19:06.471Z,32.00
2023-01-18T07:21:33.105Z,32.55
2023-01-18T07:23:59.707Z,35.90
2023-01-18T07:26:26.305Z,35.35
2023-01-18T07:28:54.781Z,43.00
2023-01-18T07:31:21.444Z,34.72
2023-01-18T07:33:48.051Z,49.38
2023-01-18T07:36:14.698Z,37.83
2023-01-18T07:38:41.666Z,39.92
2023-01-18T07:41:11.687Z,32.70
2023-01-18T07:43:38.647Z,36.35
2023-01-18T07:46:06.679Z,38.72
2023-01-18T07:48:33.983Z,33.53
2023-01-18T07:51:03.269Z,33.80
2023-01-18T07:53:30.891Z,37.47
2023-01-18T07:56:01.836Z,39.30
2023-01-18T07:58:28.579Z,32.78
2023-01-18T08:00:55.210Z,37.33
2023-01-18T08:03:22.055Z,28.55
2023-01-18T08:05:48.631Z,30.63
2023-01-18T08:08:16.879Z,31.67
2023-01-18T08:13:10.668Z,35.47
2023-01-18T08:15:38.350Z,33.97
2023-01-18T08:18:05.944Z,33.88
2023-01-18T08:20:32.879Z,39.90
2023-01-18T08:23:00.744Z,33.30
2023-01-18T08:25:29.802Z,33.85
2023-01-18T08:27:59.725Z,36.22
2023-01-18T08:30:28.259Z,35.30
2023-01-18T08:32:56.599Z,36.75
2023-01-18T08:35:34.853Z,37.70
2023-01-18T08:38:01.960Z,35.55
2023-01-18T08:40:29.228Z,38.45
2023-01-18T08:42:57.913Z,38.90
2023-01-18T08:45:25.224Z,33.67
2023-01-18T08:48:00.580Z,37.00
2023-01-18T08:50:28.002Z,36.58
2023-01-18T08:52:54.655Z,37.70
2023-01-18T08:55:22.078Z,32.40
2023-01-18T08:57:49.554Z,36.07
2023-01-18T09:00:17.586Z,35.07
2023-01-18T09:02:44.231Z,42.70
2023-01-18T09:05:10.890Z,42.25
2023-01-18T09:07:37.493Z,37.33
2023-01-18T09:10:04.878Z,39.25
2023-01-18T09:12:34.792Z,37.38
2023-01-18T09:15:01.812Z,37.25
2023-01-18T09:17:28.649Z,32.35
2023-01-18T09:19:55.264Z,40.65
2023-01-18T09:22:24.228Z,36.22
2023-01-18T09:24:51.530Z,40.72
2023-01-18T09:27:18.237Z,39.85
2023-01-18T09:29:52.094Z,39.17
2023-01-18T09:32:20.097Z,39.28
2023-01-18T09:34:50.639Z,38.63
2023-01-18T09:37:20.023Z,33.95
2023-01-18T09:39:52.094Z,35.30
2023-01-18T09:42:24.407Z,33.20
2023-01-18T09:44:59.555Z,34.03
2023-01-18T09:47:34.168Z,32.67
2023-01-18T09:50:06.552Z,31.92
2023-01-18T09:52:33.118Z,34.92
2023-01-18T09:55:28.895Z,31.85
2023-01-18T09:58:13.737Z,35.78
2023-01-18T10:00:43.320Z,32.40
2023-01-18T10:03:33.620Z,34.05
2023-01-18T10:06:15.317Z,37.10
2023-01-18T10:08:53.881Z,34.00
2023-01-18T10:11:30.118Z,34.05
2023-01-18T10:14:18.530Z,35.95
2023-01-18T10:16:54.743Z,35.15
2023-01-18T10:19:33.105Z,28.80
2023-01-18T10:22:02.504Z,34.05
2023-01-18T10:24:44.672Z,34.20
2023-01-18T10:27:25.269Z,31.70
2023-01-18T10:29:54.942Z,34.55
2023-01-18T10:32:23.604Z,33.63
2023-01-18T10:34:51.948Z,34.35
2023-01-18T10:40:07.752Z,29.65
2023-01-18T10:42:41.468Z,28.73
2023-01-18T10:45:21.621Z,35.55
2023-01-18T10:47:49.812Z,34.53
2023-01-18T10:50:22.636Z,31.65
2023-01-18T10:52:49.877Z,30.67
2023-01-18T10:55:18.534Z,35.08
2023-01-18T10:57:52.171Z,33.58
2023-01-18T11:00:21.756Z,32.42
2023-01-18T11:02:50.047Z,30.95
2023-01-18T11:05:38.087Z,29.65
2023-01-18T11:08:25.125Z,35.80
2023-01-18T11:11:14.986Z,34.55
2023-01-18T11:13:48.887Z,31.42
2023-01-18T11:16:21.360Z,34.10
2023-01-18T11:18:57.285Z,35.20
2023-01-18T11:21:25.060Z,33.05
2023-01-18T11:23:52.011Z,30.75
2023-01-18T11:26:20.435Z,30.48
2023-01-18T11:31:27.359Z,28.83
2023-01-18T11:34:02.248Z,31.10
2023-01-18T11:36:41.156Z,27.75
2023-01-18T11:39:25.986Z,27.67
2023-01-18T11:42:11.567Z,30.17
2023-01-18T11:45:18.224Z,27.52
2023-01-18T11:48:05.810Z,29.65
2023-01-18T11:50:56.889Z,25.65
2023-01-18T11:54:05.096Z,32.30
2023-01-18T11:56:40.853Z,28.60
2023-01-18T11:59:15.238Z,29.30
2023-01-18T12:02:19.478Z,31.10
2023-01-18T12:04:53.225Z,24.92
2023-01-18T12:07:50.595Z,31.00
2023-01-18T12:10:25.617Z,31.65
2023-01-18T12:13:22.884Z,28.63
2023-01-18T12:16:08.376Z,23.50
2023-01-18T12:18:40.873Z,27.83
2023-01-18T12:21:12.528Z,25.35
2023-01-18T12:24:08.240Z,28.27
2023-01-18T12:26:46.757Z,31.17
2023-01-18T12:29:41.045Z,28.58
2023-01-18T12:32:16.680Z,26.65
2023-01-18T12:34:46.297Z,31.75
2023-01-18T12:37:18.284Z,33.83
2023-01-18T12:40:18.708Z,25.98
2023-01-18T12:43:09.724Z,32.35
2023-01-18T12:45:37.960Z,29.75
2023-01-18T12:48:18.200Z,22.38
2023-01-18T12:50:48.539Z,26.38
2023-01-18T12:53:45.970Z,26.70
2023-01-18T12:56:20.120Z,25.02
2023-01-18T12:58:55.351Z,24.77
2023-01-18T13:01:25.350Z,23.17
2023-01-18T13:03:56.898Z,26.20
2023-01-18T13:06:25.595Z,26.05
2023-01-18T13:08:56.964Z,24.40
2023-01-18T13:11:30.678Z,26.05
2023-01-18T13:14:09.600Z,25.73
2023-01-18T13:16:45.285Z,22.80
2023-01-18T13:19:58.633Z,19.95
2023-01-18T13:22:46.942Z,25.15
2023-01-18T13:28:20.610Z,23.55
2023-01-18T13:30:56.750Z,21.33
2023-01-18T13:33:25.024Z,20.75
2023-01-18T13:35:57.358Z,22.27
2023-01-18T13:38:40.758Z,21.52
2023-01-18T13:41:12.647Z,22.00
2023-01-18T13:43:45.717Z,27.42
2023-01-18T13:46:15.252Z,19.85
2023-01-18T13:48:58.714Z,19.08
2023-01-18T13:51:40.656Z,20.45
2023-01-18T13:54:08.243Z,22.30
2023-01-18T13:56:36.804Z,20.27
2023-01-18T14:01:34.586Z,19.50
2023-01-18T14:04:30.581Z,22.65
2023-01-18T14:07:02.475Z,18.20
2023-01-18T14:09:49.370Z,16.88
2023-01-18T14:12:16.010Z,17.67
2023-01-18T14:14:53.535Z,18.90
2023-01-18T14:17:20.468Z,16.52
2023-01-18T14:19:57.370Z,17.55
2023-01-18T14:22:30.297Z,18.85
2023-01-18T14:25:20.703Z,17.08
2023-01-18T14:27:54.837Z,21.58
2023-01-18T14:30:29.698Z,16.00
2023-01-18T14:33:00.722Z,17.65
2023-01-18T14:35:27.623Z,17.15
2023-01-18T14:38:17.557Z,17.35
2023-01-18T14:40:47.733Z,15.95
2023-01-18T14:43:18.985Z,18.40
2023-01-18T14:45:53.601Z,17.90
2023-01-18T14:48:22.855Z,17.10
2023-01-18T14:50:52.185Z,16.00
2023-01-18T14:53:25.065Z,19.77
2023-01-18T14:56:20.619Z,16.67
2023-01-18T14:58:59.134Z,15.93
2023-01-18T15:01:37.916Z,22.42
2023-01-18T15:04:06.918Z,15.68
2023-01-18T15:06:40.490Z,16.80
2023-01-18T15:09:08.500Z,15.60
2023-01-18T15:11:36.486Z,16.48
2023-01-18T15:14:04.083Z,20.65
2023-01-18T15:16:31.367Z,19.20
2023-01-18T15:18:58.960Z,15.90
2023-01-18T15:21:31.930Z,15.60
2023-01-18T15:24:04.321Z,19.05
2023-01-18T15:26:44.227Z,17.70
2023-01-18T15:29:15.072Z,20.45
2023-01-18T15:31:57.078Z,20.08
2023-01-18T15:34:27.867Z,17.45
2023-01-18T15:36:55.688Z,19.23
2023-01-18T15:39:22.398Z,18.08
2023-01-18T15:41:50.318Z,17.35
2023-01-18T15:44:35.372Z,20.92
2023-01-18T15:47:02.345Z,17.27
2023-01-18T15:49:29.361Z,20.00
2023-01-18T15:51:59.144Z,17.70
2023-01-18T15:54:29.312Z,15.50
2023-01-18T15:57:12.182Z,18.80
2023-01-18T15:59:42.073Z,22.08
2023-01-18T16:02:08.845Z,20.20
2023-01-18T16:04:35.930Z,19.42
2023-01-18T16:07:33.771Z,19.83
2023-01-18T16:10:20.193Z,27.80
2023-01-18T16:12:47.162Z,20.65
2023-01-18T16:15:27.235Z,20.73
2023-01-18T16:18:02.666Z,22.58
2023-01-18T16:20:31.600Z,22.83
2023-01-18T16:23:12.479Z,27.75
2023-01-18T16:25:39.246Z,22.92
2023-01-18T16:28:05.917Z,22.23
2023-01-18T16:30:39.698Z,23.08
2023-01-18T16:33:09.396Z,24.17
2023-01-18T16:35:39.777Z,22.13
2023-01-18T16:38:13.038Z,29.30
2023-01-18T16:40:42.925Z,24.58
2023-01-18T16:43:20.129Z,26.52
2023-01-18T16:45:48.849Z,27.95
2023-01-18T16:48:17.927Z,25.40
2023-01-18T16:50:45.237Z,26.20
2023-01-18T16:53:12.358Z,25.95
2023-01-18T16:55:39.556Z,23.40
2023-01-18T16:58:06.383Z,27.67
2023-01-18T17:00:48.586Z,24.75
2023-01-18T17:03:15.145Z,21.95
2023-01-18T17:05:41.794Z,22.50
2023-01-18T17:08:13.983Z,23.60
2023-01-18T17:10:42.650Z,24.52
2023-01-18T17:13:09.795Z,24.20
2023-01-18T17:15:36.428Z,28.33
2023-01-18T17:18:04.854Z,24.40
2023-01-18T17:20:32.082Z,24.25
2023-01-18T17:22:59.137Z,25.10
2023-01-18T17:25:26.006Z,23.75
2023-01-18T17:27:55.664Z,27.13
2023-01-18T17:30:23.083Z,21.70
2023-01-18T17:32:50.011Z,25.30
2023-01-18T17:35:18.774Z,25.27
2023-01-18T17:37:45.779Z,20.52
2023-01-18T17:40:22.607Z,24.65
2023-01-18T17:42:51.782Z,22.15
2023-01-18T17:45:18.581Z,20.73
2023-01-18T17:47:45.329Z,18.48
2023-01-18T17:50:18.979Z,20.80
2023-01-18T17:52:45.596Z,21.23
2023-01-18T17:55:13.022Z,19.33
2023-01-18T17:57:40.255Z,21.23
2023-01-18T18:00:08.594Z,21.48
2023-01-18T18:05:01.845Z,20.60
2023-01-18T18:07:28.433Z,19.58
2023-01-18T18:10:00.066Z,21.67
2023-01-18T18:12:33.604Z,21.70
2023-01-18T18:15:00.501Z,17.80
2023-01-18T18:17:29.346Z,17.55
2023-01-18T18:19:56.314Z,16.13
2023-01-18T18:22:23.385Z,17.10
2023-01-18T18:24:50.696Z,19.70
2023-01-18T18:27:17.763Z,23.50
2023-01-18T18:29:44.918Z,19.27
2023-01-18T18:32:11.883Z,22.02
2023-01-18T18:34:38.558Z,17.73
2023-01-18T18:37:05.387Z,21.00
2023-01-18T18:39:32.913Z,19.52
2023-01-18T18:41:59.607Z,22.57
2023-01-18T18:44:26.268Z,19.55
2023-01-18T18:46:52.849Z,23.65
2023-01-18T18:49:19.405Z,16.80
2023-01-18T18:51:46.088Z,18.15
2023-01-18T18:54:12.876Z,15.18
2023-01-18T18:56:39.524Z,20.27
2023-01-18T18:59:06.076Z,23.65
2023-01-18T19:01:32.885Z,21.25
2023-01-18T19:04:00.171Z,16.17
2023-01-18T19:06:27.329Z,19.25
2023-01-18T19:08:54.535Z,19.15
2023-01-18T19:11:21.174Z,19.15
2023-01-18T19:13:49.406Z,20.85
2023-01-18T19:18:43.548Z,19.40
2023-01-18T19:21:10.134Z,17.75
2023-01-18T19:23:36.683Z,20.30
2023-01-18T19:26:03.959Z,19.13
2023-01-18T19:28:30.651Z,18.15
2023-01-18T19:31:05.627Z,15.02
2023-01-18T19:33:32.395Z,17.95
2023-01-18T19:36:09.964Z,18.73
2023-01-18T19:38:45.662Z,17.58
2023-01-18T19:41:13.452Z,16.67
2023-01-18T19:43:40.070Z,15.48
2023-01-18T19:46:11.345Z,18.00
2023-01-18T19:48:39.284Z,17.63
2023-01-18T19:51:21.165Z,16.40
2023-01-18T19:53:48.640Z,18.27
2023-01-18T19:56:15.189Z,17.02
2023-01-18T19:58:41.826Z,17.98
2023-01-18T20:01:20.229Z,14.27
2023-01-18T20:03:53.298Z,16.15
2023-01-18T20:06:20.120Z,16.88
2023-01-18T20:08:46.997Z,22.90
2023-01-18T20:11:15.692Z,17.65
2023-01-18T20:13:44.025Z,16.90
2023-01-18T20:18:40.515Z,15.75
2023-01-18T20:21:10.314Z,13.70
2023-01-18T20:23:37.132Z,19.98
2023-01-18T20:26:04.518Z,19.60
2023-01-18T20:28:31.911Z,16.65
2023-01-18T20:31:00.602Z,19.98
2023-01-18T20:33:27.160Z,14.07
2023-01-18T20:35:53.796Z,12.93
2023-01-18T20:38:20.450Z,18.42
2023-01-18T20:40:47.216Z,16.83
2023-01-18T20:43:13.757Z,15.32
2023-01-18T20:45:40.344Z,18.73
2023-01-18T20:48:07.237Z,16.73
2023-01-18T20:50:33.875Z,18.15
2023-01-18T20:53:01.216Z,20.70
2023-01-18T20:55:27.986Z,16.80
2023-01-18T20:57:55.383Z,15.00
2023-01-18T21:00:22.700Z,16.73
2023-01-18T21:02:49.881Z,16.55
2023-01-18T21:05:16.581Z,16.02
2023-01-18T21:07:43.134Z,16.65
2023-01-18T21:10:11.062Z,17.23
2023-01-18T21:12:37.680Z,17.35
2023-01-18T21:15:09.076Z,15.63
2023-01-18T21:17:36.507Z,15.18
2023-01-18T21:20:03.824Z,14.77
2023-01-18T21:22:30.408Z,13.98
2023-01-18T21:24:58.041Z,16.17
2023-01-18T21:27:29.208Z,20.17
2023-01-18T21:29:55.824Z,17.38
2023-01-18T21:32:23.244Z,14.82
2023-01-18T21:34:49.841Z,16.35
2023-01-18T21:37:16.472Z,17.60
2023-01-18T21:39:43.079Z,14.52
2023-01-18T21:42:29.648Z,16.60
2023-01-18T21:45:14.605Z,16.70
2023-01-18T21:47:41.155Z,17.60
2023-01-18T21:50:26.905Z,14.73
2023-01-18T21:53:11.956Z,18.85
2023-01-18T21:55:39.384Z,14.32
2023-01-18T21:58:24.564Z,13.40
2023-01-18T22:00:51.245Z,19.83
2023-01-18T22:03:18.593Z,16.17
2023-01-18T22:05:45.201Z,11.20
2023-01-18T22:08:11.802Z,16.63
2023-01-18T22:10:38.446Z,14.80
2023-01-18T22:13:05.013Z,13.52
2023-01-18T22:15:31.547Z,12.55
2023-01-18T22:17:58.648Z,13.25
2023-01-18T22:20:25.420Z,17.73
2023-01-18T22:22:52.011Z,15.63
2023-01-18T22:25:18.599Z,11.70
2023-01-18T22:27:45.274Z,12.73
2023-01-18T22:30:12.528Z,16.35
2023-01-18T22:32:39.346Z,13.48
2023-01-18T22:35:06.223Z,17.23
2023-01-18T22:37:32.933Z,13.50
2023-01-18T22:39:59.650Z,19.20
2023-01-18T22:42:27.589Z,14.60
2023-01-18T22:44:54.199Z,17.13
2023-01-18T22:47:20.784Z,17.15
2023-01-18T22:49:47.354Z,12.88
2023-01-18T22:52:13.906Z,15.85
2023-01-18T22:54:40.507Z,14.07
2023-01-18T22:57:07.120Z,10.85
2023-01-18T22:59:33.699Z,15.65
2023-01-18T23:02:00.289Z,19.80
2023-01-18T23:04:27.104Z,14.82
2023-01-18T23:06:54.656Z,15.15
2023-01-18T23:09:22.472Z,14.35
2023-01-18T23:11:49.244Z,13.18
2023-01-18T23:14:48.000Z,13.30
2023-01-18T23:17:34.512Z,18.42
2023-01-18T23:20:01.166Z,15.52
2023-01-18T23:22:27.757Z,18.13
2023-01-18T23:24:54.887Z,14.90
2023-01-18T23:27:21.664Z,14.88
2023-01-18T23:29:51.516Z,17.58
2023-01-18T23:32:18.166Z,14.52
2023-01-18T23:34:47.985Z,13.38
2023-01-18T23:37:14.537Z,13.52
2023-01-18T23:39:59.806Z,12.45
2023-01-18T23:42:44.567Z,15.30
2023-01-18T23:45:31.113Z,14.23
2023-01-18T23:48:18.613Z,14.40
2023-01-18T23:51:03.873Z,14.80
2023-01-18T23:53:48.989Z,17.60
2023-01-18T23:56:15.546Z,14.18
2023-01-18T23:58:42.654Z,15.90
